sensor_id;sensor_type;location;lat;lon;timestamp;temperature;humidity
35325;DHT22;35135;47.510;19.036;2023-07-20T00:01:57;28.90;49.90
35325;DHT22;35135;47.510;19.036;2023-07-20T00:04:23;28.90;49.90
35325;DHT22;35135;47.510;19.036;2023-07-20T00:06:48;28.90;49.90
35325;DHT22;35135;47.510;19.036;2023-07-20T00:09:14;28.90;49.90
35325;DHT22;35135;47.510;19.036;2023-07-20T00:11:40;28.90;49.90
35325;DHT22;35135;47.510;19.036;2023-07-20T00:14:06;28.90;49.90
35325;DHT22;35135;47.510;19.036;2023-07-20T00:16:31;28.90;50.00
35325;DHT22;35135;47.510;19.036;2023-07-20T00:18:57;28.90;49.90
35325;DHT22;35135;47.510;19.036;2023-07-20T00:21:23;28.90;49.90
35325;DHT22;35135;47.510;19.036;2023-07-20T00:23:49;28.90;50.30
35325;DHT22;35135;47.510;19.036;2023-07-20T00:26:14;28.80;50.10
35325;DHT22;35135;47.510;19.036;2023-07-20T00:28:40;28.80;50.20
35325;DHT22;35135;47.510;19.036;2023-07-20T00:31:06;28.80;50.30
35325;DHT22;35135;47.510;19.036;2023-07-20T00:33:31;28.80;50.20
35325;DHT22;35135;47.510;19.036;2023-07-20T00:35:57;28.80;50.30
35325;DHT22;35135;47.510;19.036;2023-07-20T00:38:22;28.80;50.30
35325;DHT22;35135;47.510;19.036;2023-07-20T00:40:48;28.80;50.30
35325;DHT22;35135;47.510;19.036;2023-07-20T00:43:15;28.80;50.30
35325;DHT22;35135;47.510;19.036;2023-07-20T00:45:40;28.80;50.30
35325;DHT22;35135;47.510;19.036;2023-07-20T00:48:06;28.80;50.20
35325;DHT22;35135;47.510;19.036;2023-07-20T00:50:33;28.80;50.30
35325;DHT22;35135;47.510;19.036;2023-07-20T00:52:59;28.80;50.20
35325;DHT22;35135;47.510;19.036;2023-07-20T00:55:26;28.80;50.00
35325;DHT22;35135;47.510;19.036;2023-07-20T00:57:53;28.80;50.10
35325;DHT22;35135;47.510;19.036;2023-07-20T01:00:19;28.80;50.00
35325;DHT22;35135;47.510;19.036;2023-07-20T01:02:46;28.80;50.00
35325;DHT22;35135;47.510;19.036;2023-07-20T01:05:13;28.70;50.00
35325;DHT22;35135;47.510;19.036;2023-07-20T01:08:07;28.70;49.90
35325;DHT22;35135;47.510;19.036;2023-07-20T01:11:01;28.70;49.80
35325;DHT22;35135;47.510;19.036;2023-07-20T01:13:29;28.70;49.70
35325;DHT22;35135;47.510;19.036;2023-07-20T01:16:01;28.70;49.80
35325;DHT22;35135;47.510;19.036;2023-07-20T01:18:27;28.70;49.70
35325;DHT22;35135;47.510;19.036;2023-07-20T01:20:59;28.70;49.70
35325;DHT22;35135;47.510;19.036;2023-07-20T01:29:03;28.60;49.50
35325;DHT22;35135;47.510;19.036;2023-07-20T01:31:36;28.60;49.60
35325;DHT22;35135;47.510;19.036;2023-07-20T01:34:03;28.70;49.70
35325;DHT22;35135;47.510;19.036;2023-07-20T01:36:34;28.60;49.70
35325;DHT22;35135;47.510;19.036;2023-07-20T01:39:00;28.60;50.20
35325;DHT22;35135;47.510;19.036;2023-07-20T01:41:27;28.60;49.60
35325;DHT22;35135;47.510;19.036;2023-07-20T01:43:53;28.60;49.70
35325;DHT22;35135;47.510;19.036;2023-07-20T01:46:22;28.60;49.70
35325;DHT22;35135;47.510;19.036;2023-07-20T01:48:48;28.60;50.10
35325;DHT22;35135;47.510;19.036;2023-07-20T01:51:13;28.60;50.10
35325;DHT22;35135;47.510;19.036;2023-07-20T01:53:39;28.60;50.60
35325;DHT22;35135;47.510;19.036;2023-07-20T01:56:05;28.50;50.40
35325;DHT22;35135;47.510;19.036;2023-07-20T01:58:31;28.60;50.70
35325;DHT22;35135;47.510;19.036;2023-07-20T02:00:56;28.50;50.50
35325;DHT22;35135;47.510;19.036;2023-07-20T02:03:22;28.50;50.60
35325;DHT22;35135;47.510;19.036;2023-07-20T02:05:51;28.50;50.70
35325;DHT22;35135;47.510;19.036;2023-07-20T02:08:16;28.50;50.60
35325;DHT22;35135;47.510;19.036;2023-07-20T02:10:46;28.50;50.70
35325;DHT22;35135;47.510;19.036;2023-07-20T02:13:12;28.50;50.70
35325;DHT22;35135;47.510;19.036;2023-07-20T02:15:37;28.50;50.70
35325;DHT22;35135;47.510;19.036;2023-07-20T02:18:03;28.50;50.60
35325;DHT22;35135;47.510;19.036;2023-07-20T02:20:29;28.50;50.70
35325;DHT22;35135;47.510;19.036;2023-07-20T02:22:54;28.50;50.70
35325;DHT22;35135;47.510;19.036;2023-07-20T02:25:21;28.50;50.70
35325;DHT22;35135;47.510;19.036;2023-07-20T02:27:47;28.50;50.70
35325;DHT22;35135;47.510;19.036;2023-07-20T02:30:12;28.50;50.70
35325;DHT22;35135;47.510;19.036;2023-07-20T02:32:39;28.50;50.70
35325;DHT22;35135;47.510;19.036;2023-07-20T02:35:05;28.50;50.70
35325;DHT22;35135;47.510;19.036;2023-07-20T02:37:31;28.50;51.10
35325;DHT22;35135;47.510;19.036;2023-07-20T02:39:57;28.50;50.90
35325;DHT22;35135;47.510;19.036;2023-07-20T02:42:23;28.50;50.80
35325;DHT22;35135;47.510;19.036;2023-07-20T02:44:51;28.50;50.70
35325;DHT22;35135;47.510;19.036;2023-07-20T02:47:17;28.50;50.80
35325;DHT22;35135;47.510;19.036;2023-07-20T02:49:42;28.50;50.70
35325;DHT22;35135;47.510;19.036;2023-07-20T02:52:09;28.50;50.60
35325;DHT22;35135;47.510;19.036;2023-07-20T02:54:34;28.50;50.50
35325;DHT22;35135;47.510;19.036;2023-07-20T02:57:00;28.40;50.50
35325;DHT22;35135;47.510;19.036;2023-07-20T02:59:26;28.40;50.40
35325;DHT22;35135;47.510;19.036;2023-07-20T03:01:52;28.40;50.30
35325;DHT22;35135;47.510;19.036;2023-07-20T03:04:19;28.40;50.30
35325;DHT22;35135;47.510;19.036;2023-07-20T03:06:45;28.40;50.40
35325;DHT22;35135;47.510;19.036;2023-07-20T03:09:10;28.40;50.60
35325;DHT22;35135;47.510;19.036;2023-07-20T03:11:36;28.40;50.50
35325;DHT22;35135;47.510;19.036;2023-07-20T03:14:02;28.40;50.60
35325;DHT22;35135;47.510;19.036;2023-07-20T03:16:28;28.40;50.50
35325;DHT22;35135;47.510;19.036;2023-07-20T03:18:53;28.30;50.50
35325;DHT22;35135;47.510;19.036;2023-07-20T03:21:19;28.30;50.50
35325;DHT22;35135;47.510;19.036;2023-07-20T03:23:45;28.30;50.50
35325;DHT22;35135;47.510;19.036;2023-07-20T03:26:11;28.30;50.50
35325;DHT22;35135;47.510;19.036;2023-07-20T03:28:37;28.30;50.50
35325;DHT22;35135;47.510;19.036;2023-07-20T03:31:04;28.30;50.60
35325;DHT22;35135;47.510;19.036;2023-07-20T03:33:30;28.20;50.60
35325;DHT22;35135;47.510;19.036;2023-07-20T03:35:57;28.20;50.90
35325;DHT22;35135;47.510;19.036;2023-07-20T03:38:25;28.20;50.80
35325;DHT22;35135;47.510;19.036;2023-07-20T03:40:55;28.20;50.70
35325;DHT22;35135;47.510;19.036;2023-07-20T03:43:21;28.30;50.70
35325;DHT22;35135;47.510;19.036;2023-07-20T03:45:48;28.20;50.70
35325;DHT22;35135;47.510;19.036;2023-07-20T03:48:18;28.20;50.70
35325;DHT22;35135;47.510;19.036;2023-07-20T03:50:47;28.20;50.50
35325;DHT22;35135;47.510;19.036;2023-07-20T03:53:14;28.20;50.50
35325;DHT22;35135;47.510;19.036;2023-07-20T03:55:41;28.20;50.50
35325;DHT22;35135;47.510;19.036;2023-07-20T03:58:07;28.20;50.50
35325;DHT22;35135;47.510;19.036;2023-07-20T04:00:34;28.20;50.70
35325;DHT22;35135;47.510;19.036;2023-07-20T04:03:00;28.10;50.50
35325;DHT22;35135;47.510;19.036;2023-07-20T04:05:26;28.10;50.60
35325;DHT22;35135;47.510;19.036;2023-07-20T04:07:52;28.10;50.60
35325;DHT22;35135;47.510;19.036;2023-07-20T04:10:18;28.10;50.70
35325;DHT22;35135;47.510;19.036;2023-07-20T04:12:45;28.10;50.80
35325;DHT22;35135;47.510;19.036;2023-07-20T04:15:12;28.10;50.60
35325;DHT22;35135;47.510;19.036;2023-07-20T04:17:38;28.10;50.70
35325;DHT22;35135;47.510;19.036;2023-07-20T04:20:05;28.00;50.70
35325;DHT22;35135;47.510;19.036;2023-07-20T04:22:31;28.00;50.70
35325;DHT22;35135;47.510;19.036;2023-07-20T04:24:57;28.00;50.70
35325;DHT22;35135;47.510;19.036;2023-07-20T04:27:23;28.10;50.80
35325;DHT22;35135;47.510;19.036;2023-07-20T04:29:48;28.00;50.70
35325;DHT22;35135;47.510;19.036;2023-07-20T04:32:14;28.00;50.50
35325;DHT22;35135;47.510;19.036;2023-07-20T04:34:39;28.10;50.70
35325;DHT22;35135;47.510;19.036;2023-07-20T04:37:05;28.10;50.80
35325;DHT22;35135;47.510;19.036;2023-07-20T04:39:31;28.10;50.90
35325;DHT22;35135;47.510;19.036;2023-07-20T04:41:57;28.10;50.90
35325;DHT22;35135;47.510;19.036;2023-07-20T04:44:23;28.20;50.70
35325;DHT22;35135;47.510;19.036;2023-07-20T04:46:48;28.20;50.50
35325;DHT22;35135;47.510;19.036;2023-07-20T04:49:14;28.30;50.30
35325;DHT22;35135;47.510;19.036;2023-07-20T04:51:40;28.30;50.00
35325;DHT22;35135;47.510;19.036;2023-07-20T04:54:06;28.30;49.70
35325;DHT22;35135;47.510;19.036;2023-07-20T04:56:31;28.40;48.80
35325;DHT22;35135;47.510;19.036;2023-07-20T04:58:57;28.40;48.50
35325;DHT22;35135;47.510;19.036;2023-07-20T05:01:23;28.40;48.40
35325;DHT22;35135;47.510;19.036;2023-07-20T05:03:49;28.50;48.10
35325;DHT22;35135;47.510;19.036;2023-07-20T05:06:15;28.50;47.60
35325;DHT22;35135;47.510;19.036;2023-07-20T05:08:41;28.50;47.40
35325;DHT22;35135;47.510;19.036;2023-07-20T05:11:07;28.60;47.80
35325;DHT22;35135;47.510;19.036;2023-07-20T05:13:33;28.60;47.10
35325;DHT22;35135;47.510;19.036;2023-07-20T05:15:58;28.70;47.50
35325;DHT22;35135;47.510;19.036;2023-07-20T05:18:24;28.70;46.90
35325;DHT22;35135;47.510;19.036;2023-07-20T05:20:50;28.70;46.70
35325;DHT22;35135;47.510;19.036;2023-07-20T05:23:18;28.70;46.70
35325;DHT22;35135;47.510;19.036;2023-07-20T05:25:44;28.70;46.30
35325;DHT22;35135;47.510;19.036;2023-07-20T05:28:10;28.70;45.90
35325;DHT22;35135;47.510;19.036;2023-07-20T05:30:35;28.70;45.90
35325;DHT22;35135;47.510;19.036;2023-07-20T05:33:01;28.80;46.00
35325;DHT22;35135;47.510;19.036;2023-07-20T05:35:27;28.80;46.00
35325;DHT22;35135;47.510;19.036;2023-07-20T05:37:52;28.80;46.10
35325;DHT22;35135;47.510;19.036;2023-07-20T05:40:18;28.80;46.10
35325;DHT22;35135;47.510;19.036;2023-07-20T05:42:48;28.80;45.70
35325;DHT22;35135;47.510;19.036;2023-07-20T05:45:17;28.90;46.00
35325;DHT22;35135;47.510;19.036;2023-07-20T05:47:43;28.90;45.30
35325;DHT22;35135;47.510;19.036;2023-07-20T05:50:09;29.00;45.10
35325;DHT22;35135;47.510;19.036;2023-07-20T05:52:35;29.00;45.30
35325;DHT22;35135;47.510;19.036;2023-07-20T05:55:01;29.10;45.20
35325;DHT22;35135;47.510;19.036;2023-07-20T05:57:26;29.10;44.70
35325;DHT22;35135;47.510;19.036;2023-07-20T05:59:52;29.00;44.10
35325;DHT22;35135;47.510;19.036;2023-07-20T06:02:18;28.90;45.00
35325;DHT22;35135;47.510;19.036;2023-07-20T06:04:44;29.00;44.80
35325;DHT22;35135;47.510;19.036;2023-07-20T06:07:10;29.00;44.70
35325;DHT22;35135;47.510;19.036;2023-07-20T06:09:36;29.00;44.80
35325;DHT22;35135;47.510;19.036;2023-07-20T06:12:01;29.00;44.60
35325;DHT22;35135;47.510;19.036;2023-07-20T06:14:27;29.10;44.70
35325;DHT22;35135;47.510;19.036;2023-07-20T06:16:53;29.10;44.80
35325;DHT22;35135;47.510;19.036;2023-07-20T06:19:18;29.20;44.70
35325;DHT22;35135;47.510;19.036;2023-07-20T06:21:44;29.20;45.00
35325;DHT22;35135;47.510;19.036;2023-07-20T06:24:10;29.20;44.80
35325;DHT22;35135;47.510;19.036;2023-07-20T06:26:35;29.30;44.50
35325;DHT22;35135;47.510;19.036;2023-07-20T06:29:08;29.30;44.30
35325;DHT22;35135;47.510;19.036;2023-07-20T06:31:35;29.30;44.50
35325;DHT22;35135;47.510;19.036;2023-07-20T06:34:01;29.30;44.60
35325;DHT22;35135;47.510;19.036;2023-07-20T06:36:27;29.40;44.60
35325;DHT22;35135;47.510;19.036;2023-07-20T06:38:54;29.40;44.30
35325;DHT22;35135;47.510;19.036;2023-07-20T06:41:19;29.40;43.90
35325;DHT22;35135;47.510;19.036;2023-07-20T06:43:45;29.50;44.30
35325;DHT22;35135;47.510;19.036;2023-07-20T06:46:11;29.50;44.20
35325;DHT22;35135;47.510;19.036;2023-07-20T06:48:37;29.50;44.50
35325;DHT22;35135;47.510;19.036;2023-07-20T06:51:02;29.50;44.00
35325;DHT22;35135;47.510;19.036;2023-07-20T06:53:29;29.50;44.10
35325;DHT22;35135;47.510;19.036;2023-07-20T06:55:55;29.50;43.70
35325;DHT22;35135;47.510;19.036;2023-07-20T06:58:23;29.50;43.60
35325;DHT22;35135;47.510;19.036;2023-07-20T07:00:49;29.50;43.20
35325;DHT22;35135;47.510;19.036;2023-07-20T07:03:15;29.50;43.70
35325;DHT22;35135;47.510;19.036;2023-07-20T07:05:40;29.50;43.80
35325;DHT22;35135;47.510;19.036;2023-07-20T07:08:06;29.60;43.70
35325;DHT22;35135;47.510;19.036;2023-07-20T07:10:34;29.60;43.50
35325;DHT22;35135;47.510;19.036;2023-07-20T07:13:00;29.60;43.20
35325;DHT22;35135;47.510;19.036;2023-07-20T07:15:26;29.60;43.00
35325;DHT22;35135;47.510;19.036;2023-07-20T07:17:53;29.60;43.10
35325;DHT22;35135;47.510;19.036;2023-07-20T07:20:18;29.60;42.80
35325;DHT22;35135;47.510;19.036;2023-07-20T07:22:44;29.60;42.40
35325;DHT22;35135;47.510;19.036;2023-07-20T07:25:10;29.60;42.90
35325;DHT22;35135;47.510;19.036;2023-07-20T07:27:36;29.60;42.50
35325;DHT22;35135;47.510;19.036;2023-07-20T07:30:03;29.60;43.30
35325;DHT22;35135;47.510;19.036;2023-07-20T07:32:29;29.60;42.80
35325;DHT22;35135;47.510;19.036;2023-07-20T07:34:54;29.60;43.00
35325;DHT22;35135;47.510;19.036;2023-07-20T07:37:20;29.60;42.80
35325;DHT22;35135;47.510;19.036;2023-07-20T07:39:46;29.60;43.00
35325;DHT22;35135;47.510;19.036;2023-07-20T07:42:12;29.60;42.60
35325;DHT22;35135;47.510;19.036;2023-07-20T07:44:38;29.60;42.70
35325;DHT22;35135;47.510;19.036;2023-07-20T07:47:04;29.60;42.80
35325;DHT22;35135;47.510;19.036;2023-07-20T07:49:31;29.60;42.70
35325;DHT22;35135;47.510;19.036;2023-07-20T07:51:57;29.60;42.50
35325;DHT22;35135;47.510;19.036;2023-07-20T07:54:22;29.60;42.70
35325;DHT22;35135;47.510;19.036;2023-07-20T07:56:48;29.60;42.50
35325;DHT22;35135;47.510;19.036;2023-07-20T07:59:14;29.60;42.40
35325;DHT22;35135;47.510;19.036;2023-07-20T08:01:40;29.60;42.50
35325;DHT22;35135;47.510;19.036;2023-07-20T08:04:06;29.60;42.20
35325;DHT22;35135;47.510;19.036;2023-07-20T08:06:31;29.60;42.30
35325;DHT22;35135;47.510;19.036;2023-07-20T08:08:57;29.60;42.20
35325;DHT22;35135;47.510;19.036;2023-07-20T08:11:24;29.60;42.40
35325;DHT22;35135;47.510;19.036;2023-07-20T08:13:49;29.60;42.10
35325;DHT22;35135;47.510;19.036;2023-07-20T08:16:15;29.60;42.40
35325;DHT22;35135;47.510;19.036;2023-07-20T08:18:41;29.60;42.20
35325;DHT22;35135;47.510;19.036;2023-07-20T08:21:06;29.60;42.10
35325;DHT22;35135;47.510;19.036;2023-07-20T08:23:32;29.60;42.00
35325;DHT22;35135;47.510;19.036;2023-07-20T08:25:58;29.60;42.80
35325;DHT22;35135;47.510;19.036;2023-07-20T08:28:24;29.60;42.10
35325;DHT22;35135;47.510;19.036;2023-07-20T08:30:49;29.60;42.40
35325;DHT22;35135;47.510;19.036;2023-07-20T08:33:18;29.60;42.00
35325;DHT22;35135;47.510;19.036;2023-07-20T08:35:48;29.60;42.00
35325;DHT22;35135;47.510;19.036;2023-07-20T08:38:14;29.50;41.70
35325;DHT22;35135;47.510;19.036;2023-07-20T08:40:45;29.50;42.00
35325;DHT22;35135;47.510;19.036;2023-07-20T08:43:11;29.40;42.00
35325;DHT22;35135;47.510;19.036;2023-07-20T08:45:39;29.40;42.20
35325;DHT22;35135;47.510;19.036;2023-07-20T08:48:08;29.40;42.30
35325;DHT22;35135;47.510;19.036;2023-07-20T08:50:35;29.30;42.30
35325;DHT22;35135;47.510;19.036;2023-07-20T08:53:02;29.30;42.20
35325;DHT22;35135;47.510;19.036;2023-07-20T08:55:29;29.30;42.20
35325;DHT22;35135;47.510;19.036;2023-07-20T08:57:56;29.20;42.10
35325;DHT22;35135;47.510;19.036;2023-07-20T09:00:23;29.20;42.20
35325;DHT22;35135;47.510;19.036;2023-07-20T09:02:50;29.20;42.20
35325;DHT22;35135;47.510;19.036;2023-07-20T09:05:17;29.20;42.30
35325;DHT22;35135;47.510;19.036;2023-07-20T09:07:44;29.20;42.30
35325;DHT22;35135;47.510;19.036;2023-07-20T09:10:09;29.10;42.00
35325;DHT22;35135;47.510;19.036;2023-07-20T09:12:39;29.10;42.10
35325;DHT22;35135;47.510;19.036;2023-07-20T09:15:06;29.10;41.90
35325;DHT22;35135;47.510;19.036;2023-07-20T09:17:32;29.10;42.10
35325;DHT22;35135;47.510;19.036;2023-07-20T09:19:59;29.10;41.50
35325;DHT22;35135;47.510;19.036;2023-07-20T09:22:30;29.10;41.40
35325;DHT22;35135;47.510;19.036;2023-07-20T09:24:57;29.00;41.50
35325;DHT22;35135;47.510;19.036;2023-07-20T09:27:35;29.00;41.50
35325;DHT22;35135;47.510;19.036;2023-07-20T09:30:04;29.00;40.90
35325;DHT22;35135;47.510;19.036;2023-07-20T09:32:29;29.00;41.90
35325;DHT22;35135;47.510;19.036;2023-07-20T09:34:55;29.10;41.70
35325;DHT22;35135;47.510;19.036;2023-07-20T09:37:22;29.00;41.20
35325;DHT22;35135;47.510;19.036;2023-07-20T09:39:48;29.00;41.90
35325;DHT22;35135;47.510;19.036;2023-07-20T09:42:15;29.00;41.80
35325;DHT22;35135;47.510;19.036;2023-07-20T09:44:43;29.10;41.60
35325;DHT22;35135;47.510;19.036;2023-07-20T09:47:09;29.10;41.50
35325;DHT22;35135;47.510;19.036;2023-07-20T09:49:41;29.10;41.90
35325;DHT22;35135;47.510;19.036;2023-07-20T09:52:08;29.10;41.90
35325;DHT22;35135;47.510;19.036;2023-07-20T09:54:38;29.10;41.70
35325;DHT22;35135;47.510;19.036;2023-07-20T09:57:08;29.10;41.80
35325;DHT22;35135;47.510;19.036;2023-07-20T09:59:34;29.10;41.80
35325;DHT22;35135;47.510;19.036;2023-07-20T10:02:02;29.10;41.60
35325;DHT22;35135;47.510;19.036;2023-07-20T10:04:30;29.10;41.50
35325;DHT22;35135;47.510;19.036;2023-07-20T10:06:59;29.00;41.40
35325;DHT22;35135;47.510;19.036;2023-07-20T10:09:26;29.10;42.10
35325;DHT22;35135;47.510;19.036;2023-07-20T10:11:53;29.10;41.40
35325;DHT22;35135;47.510;19.036;2023-07-20T10:14:22;29.10;41.60
35325;DHT22;35135;47.510;19.036;2023-07-20T10:16:56;29.10;41.90
35325;DHT22;35135;47.510;19.036;2023-07-20T10:19:30;29.10;41.70
35325;DHT22;35135;47.510;19.036;2023-07-20T10:22:22;29.10;41.60
35325;DHT22;35135;47.510;19.036;2023-07-20T10:24:50;29.10;41.80
35325;DHT22;35135;47.510;19.036;2023-07-20T10:27:20;29.10;41.80
35325;DHT22;35135;47.510;19.036;2023-07-20T10:29:47;29.10;41.80
35325;DHT22;35135;47.510;19.036;2023-07-20T10:32:13;29.10;41.90
35325;DHT22;35135;47.510;19.036;2023-07-20T10:34:39;29.10;42.10
35325;DHT22;35135;47.510;19.036;2023-07-20T10:37:05;29.10;42.10
35325;DHT22;35135;47.510;19.036;2023-07-20T10:39:31;29.10;42.00
35325;DHT22;35135;47.510;19.036;2023-07-20T10:44:27;29.10;42.20
35325;DHT22;35135;47.510;19.036;2023-07-20T10:46:59;29.10;41.80
35325;DHT22;35135;47.510;19.036;2023-07-20T10:49:26;29.10;42.30
35325;DHT22;35135;47.510;19.036;2023-07-20T10:51:59;29.00;42.20
35325;DHT22;35135;47.510;19.036;2023-07-20T10:56:51;29.10;42.20
35325;DHT22;35135;47.510;19.036;2023-07-20T11:01:48;29.00;41.50
35325;DHT22;35135;47.510;19.036;2023-07-20T11:04:17;29.00;41.80
35325;DHT22;35135;47.510;19.036;2023-07-20T11:06:46;29.00;41.10
35325;DHT22;35135;47.510;19.036;2023-07-20T11:09:22;29.00;41.20
35325;DHT22;35135;47.510;19.036;2023-07-20T11:12:12;29.00;41.20
35325;DHT22;35135;47.510;19.036;2023-07-20T11:14:55;29.00;40.90
35325;DHT22;35135;47.510;19.036;2023-07-20T11:17:32;29.00;40.50
35325;DHT22;35135;47.510;19.036;2023-07-20T11:19:59;29.00;40.40
35325;DHT22;35135;47.510;19.036;2023-07-20T11:22:26;29.00;40.40
35325;DHT22;35135;47.510;19.036;2023-07-20T11:24:55;29.00;40.20
35325;DHT22;35135;47.510;19.036;2023-07-20T11:27:21;29.00;40.20
35325;DHT22;35135;47.510;19.036;2023-07-20T11:29:48;29.00;40.10
35325;DHT22;35135;47.510;19.036;2023-07-20T11:32:23;29.00;40.20
35325;DHT22;35135;47.510;19.036;2023-07-20T11:34:50;29.00;40.50
35325;DHT22;35135;47.510;19.036;2023-07-20T11:37:17;29.00;40.30
35325;DHT22;35135;47.510;19.036;2023-07-20T11:39:43;29.00;40.70
35325;DHT22;35135;47.510;19.036;2023-07-20T11:42:09;29.00;40.50
35325;DHT22;35135;47.510;19.036;2023-07-20T11:44:35;29.00;40.20
35325;DHT22;35135;47.510;19.036;2023-07-20T11:47:07;29.00;40.30
35325;DHT22;35135;47.510;19.036;2023-07-20T11:49:41;29.00;40.40
35325;DHT22;35135;47.510;19.036;2023-07-20T11:52:12;29.00;40.30
35325;DHT22;35135;47.510;19.036;2023-07-20T11:54:40;29.00;40.40
35325;DHT22;35135;47.510;19.036;2023-07-20T11:57:05;29.00;40.30
35325;DHT22;35135;47.510;19.036;2023-07-20T11:59:32;28.90;40.20
35325;DHT22;35135;47.510;19.036;2023-07-20T12:02:01;28.90;39.80
35325;DHT22;35135;47.510;19.036;2023-07-20T12:04:28;29.00;39.70
35325;DHT22;35135;47.510;19.036;2023-07-20T12:06:54;28.90;40.40
35325;DHT22;35135;47.510;19.036;2023-07-20T12:09:23;28.90;40.20
35325;DHT22;35135;47.510;19.036;2023-07-20T12:11:50;28.90;40.00
35325;DHT22;35135;47.510;19.036;2023-07-20T12:14:16;29.00;40.30
35325;DHT22;35135;47.510;19.036;2023-07-20T12:16:41;28.90;40.10
35325;DHT22;35135;47.510;19.036;2023-07-20T12:19:12;29.00;40.50
35325;DHT22;35135;47.510;19.036;2023-07-20T12:21:40;29.00;39.50
35325;DHT22;35135;47.510;19.036;2023-07-20T12:24:08;29.00;40.30
35325;DHT22;35135;47.510;19.036;2023-07-20T12:26:37;28.90;40.00
35325;DHT22;35135;47.510;19.036;2023-07-20T12:29:03;29.00;40.10
35325;DHT22;35135;47.510;19.036;2023-07-20T12:31:30;29.00;40.30
35325;DHT22;35135;47.510;19.036;2023-07-20T12:33:57;29.00;40.30
35325;DHT22;35135;47.510;19.036;2023-07-20T12:36:24;28.90;40.60
35325;DHT22;35135;47.510;19.036;2023-07-20T12:38:50;29.00;40.60
35325;DHT22;35135;47.510;19.036;2023-07-20T12:41:16;29.00;40.70
35325;DHT22;35135;47.510;19.036;2023-07-20T12:43:44;29.00;40.50
35325;DHT22;35135;47.510;19.036;2023-07-20T12:46:10;29.00;40.20
35325;DHT22;35135;47.510;19.036;2023-07-20T12:48:37;29.00;40.20
35325;DHT22;35135;47.510;19.036;2023-07-20T12:51:05;29.00;40.10
35325;DHT22;35135;47.510;19.036;2023-07-20T12:53:32;29.00;39.60
35325;DHT22;35135;47.510;19.036;2023-07-20T12:55:58;29.00;39.40
35325;DHT22;35135;47.510;19.036;2023-07-20T12:58:24;29.00;39.20
35325;DHT22;35135;47.510;19.036;2023-07-20T13:00:49;29.00;39.40
35325;DHT22;35135;47.510;19.036;2023-07-20T13:03:15;29.00;39.00
35325;DHT22;35135;47.510;19.036;2023-07-20T13:05:44;29.00;38.80
35325;DHT22;35135;47.510;19.036;2023-07-20T13:08:10;29.00;39.30
35325;DHT22;35135;47.510;19.036;2023-07-20T13:10:36;29.00;38.80
35325;DHT22;35135;47.510;19.036;2023-07-20T13:13:01;29.00;38.40
35325;DHT22;35135;47.510;19.036;2023-07-20T13:15:32;29.00;39.10
35325;DHT22;35135;47.510;19.036;2023-07-20T13:17:58;29.00;39.30
35325;DHT22;35135;47.510;19.036;2023-07-20T13:20:25;29.00;38.90
35325;DHT22;35135;47.510;19.036;2023-07-20T13:22:51;29.00;38.60
35325;DHT22;35135;47.510;19.036;2023-07-20T13:25:17;29.00;39.30
35325;DHT22;35135;47.510;19.036;2023-07-20T13:27:43;29.00;39.60
35325;DHT22;35135;47.510;19.036;2023-07-20T13:30:09;29.00;38.60
35325;DHT22;35135;47.510;19.036;2023-07-20T13:32:39;29.00;39.00
35325;DHT22;35135;47.510;19.036;2023-07-20T13:35:05;29.00;38.90
35325;DHT22;35135;47.510;19.036;2023-07-20T13:37:30;29.00;39.00
35325;DHT22;35135;47.510;19.036;2023-07-20T13:39:56;29.00;39.00
35325;DHT22;35135;47.510;19.036;2023-07-20T13:42:22;29.00;39.20
35325;DHT22;35135;47.510;19.036;2023-07-20T13:44:48;29.00;38.10
35325;DHT22;35135;47.510;19.036;2023-07-20T13:47:14;29.00;39.40
35325;DHT22;35135;47.510;19.036;2023-07-20T13:49:40;29.10;39.40
35325;DHT22;35135;47.510;19.036;2023-07-20T13:52:06;29.10;39.40
35325;DHT22;35135;47.510;19.036;2023-07-20T13:54:32;29.00;38.80
35325;DHT22;35135;47.510;19.036;2023-07-20T13:56:57;29.10;39.20
35325;DHT22;35135;47.510;19.036;2023-07-20T13:59:23;29.10;39.40
35325;DHT22;35135;47.510;19.036;2023-07-20T14:01:49;29.00;39.00
35325;DHT22;35135;47.510;19.036;2023-07-20T14:04:15;29.10;39.40
35325;DHT22;35135;47.510;19.036;2023-07-20T14:06:41;29.10;39.40
35325;DHT22;35135;47.510;19.036;2023-07-20T14:09:06;29.10;39.70
35325;DHT22;35135;47.510;19.036;2023-07-20T14:11:32;29.10;39.60
35325;DHT22;35135;47.510;19.036;2023-07-20T14:13:58;29.10;39.60
35325;DHT22;35135;47.510;19.036;2023-07-20T14:16:24;29.00;39.40
35325;DHT22;35135;47.510;19.036;2023-07-20T14:18:50;29.10;38.10
35325;DHT22;35135;47.510;19.036;2023-07-20T14:21:17;29.10;39.10
35325;DHT22;35135;47.510;19.036;2023-07-20T14:23:47;29.10;39.30
35325;DHT22;35135;47.510;19.036;2023-07-20T14:26:13;29.00;38.60
35325;DHT22;35135;47.510;19.036;2023-07-20T14:28:39;29.10;39.10
35325;DHT22;35135;47.510;19.036;2023-07-20T14:31:05;29.10;38.50
35325;DHT22;35135;47.510;19.036;2023-07-20T14:33:31;29.10;38.80
35325;DHT22;35135;47.510;19.036;2023-07-20T14:35:57;29.10;38.40
35325;DHT22;35135;47.510;19.036;2023-07-20T14:38:23;29.10;38.80
35325;DHT22;35135;47.510;19.036;2023-07-20T14:40:49;29.10;38.70
35325;DHT22;35135;47.510;19.036;2023-07-20T14:43:14;29.10;38.80
35325;DHT22;35135;47.510;19.036;2023-07-20T14:45:43;29.10;39.00
35325;DHT22;35135;47.510;19.036;2023-07-20T14:48:10;29.10;38.40
35325;DHT22;35135;47.510;19.036;2023-07-20T14:50:35;29.10;38.10
35325;DHT22;35135;47.510;19.036;2023-07-20T14:53:01;29.10;38.10
35325;DHT22;35135;47.510;19.036;2023-07-20T14:55:27;29.10;37.70
35325;DHT22;35135;47.510;19.036;2023-07-20T14:57:52;29.10;38.00
35325;DHT22;35135;47.510;19.036;2023-07-20T15:00:18;29.10;37.50
35325;DHT22;35135;47.510;19.036;2023-07-20T15:02:45;29.10;38.30
35325;DHT22;35135;47.510;19.036;2023-07-20T15:05:11;29.10;38.20
35325;DHT22;35135;47.510;19.036;2023-07-20T15:07:37;29.10;38.30
35325;DHT22;35135;47.510;19.036;2023-07-20T15:10:04;29.10;38.40
35325;DHT22;35135;47.510;19.036;2023-07-20T15:12:30;29.10;38.10
35325;DHT22;35135;47.510;19.036;2023-07-20T15:15:09;29.10;38.30
35325;DHT22;35135;47.510;19.036;2023-07-20T15:17:36;29.10;38.50
35325;DHT22;35135;47.510;19.036;2023-07-20T15:20:05;29.10;38.50
35325;DHT22;35135;47.510;19.036;2023-07-20T15:22:34;29.10;38.80
35325;DHT22;35135;47.510;19.036;2023-07-20T15:25:02;29.10;38.30
35325;DHT22;35135;47.510;19.036;2023-07-20T15:27:27;29.10;38.80